createdAt,value
2022-11-01T00:01:29.445Z,13.37
2022-11-01T00:04:31.140Z,13.36
2022-11-01T00:07:34.188Z,13.34
2022-11-01T00:10:35.824Z,13.32
2022-11-01T00:13:37.455Z,13.33
2022-11-01T00:16:39.409Z,13.29
2022-11-01T00:19:40.999Z,13.33
2022-11-01T00:22:43.983Z,13.27
2022-11-01T00:25:45.752Z,13.33
2022-11-01T00:28:48.076Z,13.39
2022-11-01T00:31:49.880Z,13.40
2022-11-01T00:34:51.602Z,13.43
2022-11-01T00:37:54.563Z,13.42
2022-11-01T00:40:56.592Z,13.36
2022-11-01T00:43:58.321Z,13.46
2022-11-01T00:46:59.977Z,13.46
2022-11-01T00:50:01.652Z,13.52
2022-11-01T00:53:04.972Z,13.56
2022-11-01T00:56:07.700Z,13.76
2022-11-01T00:59:09.497Z,13.84
2022-11-01T01:02:11.243Z,14.08
2022-11-01T01:05:13.026Z,14.32
2022-11-01T01:08:16.035Z,14.63
2022-11-01T01:11:17.704Z,14.97
2022-11-01T01:14:19.369Z,14.94
2022-11-01T01:17:21.084Z,15.06
2022-11-01T01:20:23.080Z,15.09
2022-11-01T01:23:26.047Z,15.24
2022-11-01T01:26:27.761Z,15.35
2022-11-01T01:29:29.607Z,15.31
2022-11-01T01:32:31.275Z,15.37
2022-11-01T01:35:32.966Z,15.17
2022-11-01T01:38:36.067Z,15.26
2022-11-01T01:41:56.164Z,15.61
2022-11-01T01:45:19.568Z,15.57
2022-11-01T01:48:25.124Z,15.53
2022-11-01T01:51:28.930Z,15.59
2022-11-01T01:54:32.648Z,15.76
2022-11-01T01:57:35.097Z,15.67
2022-11-01T02:00:36.741Z,15.71
2022-11-01T02:03:40.154Z,15.66
2022-11-01T02:06:42.010Z,15.64
2022-11-01T02:09:45.573Z,15.60
2022-11-01T02:12:48.658Z,15.69
2022-11-01T02:16:04.492Z,15.66
2022-11-01T02:19:44.781Z,15.94
2022-11-01T02:23:26.292Z,15.89
2022-11-01T02:26:50.828Z,15.83
2022-11-01T02:30:06.918Z,15.86
2022-11-01T02:33:28.264Z,15.85
2022-11-01T02:36:35.431Z,15.87
2022-11-01T02:39:41.435Z,15.82
2022-11-01T02:42:46.392Z,15.90
2022-11-01T02:45:50.402Z,15.89
2022-11-01T02:48:54.879Z,15.96
2022-11-01T02:51:58.491Z,15.93
2022-11-01T02:55:03.146Z,16.00
2022-11-01T02:58:06.786Z,15.99
2022-11-01T03:01:15.842Z,15.95
2022-11-01T03:04:19.003Z,15.72
2022-11-01T03:07:20.824Z,15.52
2022-11-01T03:10:31.757Z,15.24
2022-11-01T03:13:52.059Z,15.00
2022-11-01T03:16:58.916Z,14.78
2022-11-01T03:20:08.140Z,14.57
2022-11-01T03:23:10.627Z,14.41
2022-11-01T03:26:17.462Z,14.30
2022-11-01T03:29:23.579Z,14.28
2022-11-01T03:32:28.107Z,14.29
2022-11-01T03:35:32.490Z,14.24
2022-11-01T03:38:39.652Z,14.22
2022-11-01T03:41:46.200Z,14.26
2022-11-01T03:44:50.712Z,14.33
2022-11-01T03:47:52.567Z,14.43
2022-11-01T03:50:58.296Z,14.42
2022-11-01T03:53:59.964Z,14.45
2022-11-01T03:57:01.583Z,14.40
2022-11-01T04:00:04.280Z,14.38
2022-11-01T04:03:13.894Z,14.44
2022-11-01T04:06:17.060Z,14.50
2022-11-01T04:09:18.680Z,14.47
2022-11-01T04:12:20.280Z,14.52
2022-11-01T04:15:41.718Z,14.53
2022-11-01T04:19:01.954Z,14.56
2022-11-01T04:22:04.929Z,14.57
2022-11-01T04:25:07.113Z,14.57
2022-11-01T04:28:08.749Z,14.53
2022-11-01T04:31:10.969Z,14.58
2022-11-01T04:34:12.548Z,14.57
2022-11-01T04:37:15.467Z,14.55
2022-11-01T04:40:17.368Z,14.51
2022-11-01T04:43:18.931Z,14.47
2022-11-01T04:46:21.040Z,14.52
2022-11-01T04:49:22.804Z,14.48
2022-11-01T04:52:25.821Z,14.48
2022-11-01T04:55:28.240Z,14.45
2022-11-01T04:58:30.249Z,14.39
2022-11-01T05:01:31.904Z,14.34
2022-11-01T05:04:33.598Z,14.25
2022-11-01T05:07:36.937Z,14.40
2022-11-01T05:10:40.192Z,14.40
2022-11-01T05:13:41.811Z,14.43
2022-11-01T05:16:43.954Z,14.53
2022-11-01T05:19:45.856Z,14.52
2022-11-01T05:22:49.061Z,14.46
2022-11-01T05:25:50.635Z,14.40
2022-11-01T05:28:52.269Z,14.38
2022-11-01T05:31:54.292Z,14.33
2022-11-01T05:34:55.931Z,14.32
2022-11-01T05:37:58.946Z,14.29
2022-11-01T05:41:02.160Z,14.25
2022-11-01T05:44:04.177Z,14.27
2022-11-01T05:47:06.192Z,14.23
2022-11-01T05:50:08.836Z,14.22
2022-11-01T05:53:11.827Z,14.22
2022-11-01T05:56:13.508Z,14.21
2022-11-01T05:59:15.299Z,14.16
2022-11-01T06:02:17.021Z,14.13
2022-11-01T06:05:18.668Z,14.13
2022-11-01T06:08:21.683Z,14.11
2022-11-01T06:11:23.581Z,14.10
2022-11-01T06:14:25.326Z,14.13
2022-11-01T06:17:27.205Z,14.12
2022-11-01T06:20:30.391Z,14.13
2022-11-01T06:23:33.408Z,14.10
2022-11-01T06:26:35.209Z,14.09
2022-11-01T06:29:36.911Z,14.08
2022-11-01T06:32:38.628Z,14.08
2022-11-01T06:35:40.239Z,14.08
2022-11-01T06:38:43.220Z,14.09
2022-11-01T06:41:44.816Z,14.10
2022-11-01T06:44:46.533Z,14.11
2022-11-01T06:47:48.236Z,14.13
2022-11-01T06:50:49.981Z,14.14
2022-11-01T06:53:52.910Z,14.16
2022-11-01T06:56:54.540Z,14.17
2022-11-01T06:59:57.242Z,14.22
2022-11-01T07:03:00.346Z,14.19
2022-11-01T07:06:02.007Z,14.19
2022-11-01T07:09:05.570Z,14.21
2022-11-01T07:12:07.297Z,14.22
2022-11-01T07:15:10.854Z,14.22
2022-11-01T07:18:12.489Z,14.24
2022-11-01T07:21:14.177Z,14.24
2022-11-01T07:24:17.222Z,14.23
2022-11-01T07:27:20.563Z,14.25
2022-11-01T07:30:22.823Z,14.24
2022-11-01T07:33:24.508Z,14.26
2022-11-01T07:36:26.134Z,14.26
2022-11-01T07:39:29.066Z,14.28
2022-11-01T07:42:30.669Z,14.30
2022-11-01T07:45:34.467Z,14.33
2022-11-01T07:48:36.763Z,14.37
2022-11-01T07:51:38.669Z,14.38
2022-11-01T07:54:41.771Z,14.42
2022-11-01T07:57:43.411Z,14.48
2022-11-01T08:00:45.617Z,14.55
2022-11-01T08:03:49.237Z,14.55
2022-11-01T08:06:52.177Z,14.62
2022-11-01T08:09:55.470Z,14.63
2022-11-01T08:13:01.695Z,14.68
2022-11-01T08:16:03.675Z,14.73
2022-11-01T08:19:05.310Z,14.78
2022-11-01T08:22:06.937Z,14.85
2022-11-01T08:25:10.208Z,14.88
2022-11-01T08:28:14.440Z,14.97
2022-11-01T08:31:17.700Z,15.01
2022-11-01T08:34:19.362Z,15.04
2022-11-01T08:37:20.970Z,15.04
2022-11-01T08:40:24.098Z,15.07
2022-11-01T08:43:25.839Z,15.13
2022-11-01T08:46:27.511Z,15.13
2022-11-01T08:49:29.114Z,15.11
2022-11-01T08:52:30.744Z,15.01
2022-11-01T08:55:37.664Z,15.04
2022-11-01T08:58:39.917Z,15.05
2022-11-01T09:01:41.842Z,15.00
2022-11-01T09:04:43.573Z,15.00
2022-11-01T09:07:45.217Z,15.01
2022-11-01T09:10:48.400Z,15.00
2022-11-01T09:13:50.291Z,15.03
2022-11-01T09:16:52.401Z,15.09
2022-11-01T09:19:54.478Z,15.07
2022-11-01T09:22:56.052Z,15.15
2022-11-01T09:26:03.776Z,15.16
2022-11-01T09:29:05.852Z,15.11
2022-11-01T09:32:07.587Z,15.10
2022-11-01T09:35:09.675Z,15.07
2022-11-01T09:38:11.390Z,14.80
2022-11-01T09:41:25.871Z,14.55
2022-11-01T09:44:31.610Z,14.46
2022-11-01T09:47:34.054Z,14.38
2022-11-01T09:50:38.651Z,14.36
2022-11-01T09:53:41.542Z,14.35
2022-11-01T09:56:51.545Z,14.31
2022-11-01T10:00:04.035Z,14.31
2022-11-01T10:03:33.533Z,14.18
2022-11-01T10:06:42.472Z,14.23
2022-11-01T10:09:50.807Z,14.25
2022-11-01T10:13:07.363Z,14.38
2022-11-01T10:16:14.991Z,14.47
2022-11-01T10:19:19.016Z,14.53
2022-11-01T10:22:28.666Z,14.59
2022-11-01T10:25:33.669Z,14.66
2022-11-01T10:28:45.293Z,14.66
2022-11-01T10:31:51.713Z,14.74
2022-11-01T10:34:57.870Z,14.90
2022-11-01T10:38:19.155Z,14.96
2022-11-01T10:41:35.162Z,15.02
2022-11-01T10:44:41.437Z,15.06
2022-11-01T10:47:46.001Z,15.09
2022-11-01T10:50:48.090Z,15.35
2022-11-01T10:53:53.913Z,15.58
2022-11-01T10:57:00.243Z,15.68
2022-11-01T11:00:06.455Z,15.53
2022-11-01T11:03:16.819Z,15.62
2022-11-01T11:06:19.149Z,16.25
2022-11-01T11:09:26.302Z,16.03
2022-11-01T11:12:30.047Z,16.00
2022-11-01T11:15:40.245Z,16.48
2022-11-01T11:19:00.004Z,16.86
2022-11-01T11:22:06.367Z,17.52
2022-11-01T11:25:15.039Z,17.08
2022-11-01T11:28:23.955Z,17.09
2022-11-01T11:31:28.984Z,16.95
2022-11-01T11:34:34.123Z,17.07
2022-11-01T11:37:39.405Z,17.43
2022-11-01T11:40:45.634Z,17.31
2022-11-01T11:43:47.370Z,17.38
2022-11-01T11:46:57.763Z,17.86
2022-11-01T11:50:00.549Z,17.51
2022-11-01T11:53:09.119Z,17.83
2022-11-01T11:56:11.772Z,17.70
2022-11-01T11:59:28.201Z,17.87
2022-11-01T12:02:35.428Z,18.17
2022-11-01T12:05:37.718Z,18.10
2022-11-01T12:08:45.532Z,18.06
2022-11-01T12:11:47.414Z,18.51
2022-11-01T12:14:49.479Z,18.39
2022-11-01T12:17:53.166Z,18.16
2022-11-01T12:20:55.115Z,17.95
2022-11-01T12:24:02.627Z,18.36
2022-11-01T12:27:10.205Z,18.34
2022-11-01T12:30:19.357Z,18.62
2022-11-01T12:33:27.626Z,18.43
2022-11-01T12:36:34.701Z,18.25
2022-11-01T12:39:45.685Z,18.61
2022-11-01T12:42:51.475Z,19.03
2022-11-01T12:45:57.684Z,18.69
2022-11-01T12:49:08.630Z,19.15
2022-11-01T12:52:17.653Z,19.05
2022-11-01T12:55:28.783Z,19.12
2022-11-01T12:58:33.656Z,18.92
2022-11-01T13:01:42.835Z,19.22
2022-11-01T13:04:54.831Z,19.46
2022-11-01T13:08:07.660Z,19.23
2022-11-01T13:11:18.332Z,19.77
2022-11-01T13:14:31.652Z,19.35
2022-11-01T13:17:40.355Z,18.54
2022-11-01T13:20:55.284Z,18.96
2022-11-01T13:24:01.150Z,19.07
2022-11-01T13:27:09.786Z,19.19
2022-11-01T13:30:14.155Z,19.54
2022-11-01T13:33:21.211Z,19.84
2022-11-01T13:36:31.631Z,19.11
2022-11-01T13:39:40.474Z,19.15
2022-11-01T13:42:46.176Z,19.39
2022-11-01T13:46:17.267Z,19.09
2022-11-01T13:49:36.605Z,19.77
2022-11-01T13:52:49.020Z,19.37
2022-11-01T13:55:55.464Z,19.03
2022-11-01T13:58:58.549Z,18.91
2022-11-01T14:02:49.229Z,18.78
2022-11-01T14:09:43.251Z,18.38
2022-11-01T14:12:49.180Z,18.25
2022-11-01T14:16:03.866Z,18.02
2022-11-01T14:19:19.170Z,17.97
2022-11-01T14:22:28.469Z,18.08
2022-11-01T14:25:32.546Z,17.93
2022-11-01T14:28:34.259Z,17.79
2022-11-01T14:31:36.855Z,17.69
2022-11-01T14:34:41.201Z,17.66
2022-11-01T14:37:44.128Z,17.45
2022-11-01T14:40:51.597Z,17.32
2022-11-01T14:43:59.335Z,17.31
2022-11-01T14:47:06.377Z,17.30
2022-11-01T14:50:27.241Z,17.13
2022-11-01T14:53:32.906Z,17.15
2022-11-01T14:56:40.854Z,17.30
2022-11-01T14:59:42.618Z,17.06
2022-11-01T15:02:44.526Z,16.92
2022-11-01T15:05:48.638Z,16.60
2022-11-01T15:08:50.663Z,16.63
2022-11-01T15:12:03.441Z,16.63
2022-11-01T15:15:06.405Z,16.65
2022-11-01T15:18:15.503Z,16.49
2022-11-01T15:21:22.270Z,16.22
2022-11-01T15:24:26.232Z,16.35
2022-11-01T15:27:35.844Z,16.29
2022-11-01T15:30:38.790Z,16.28
2022-11-01T15:33:52.611Z,16.14
2022-11-01T15:36:55.163Z,16.03
2022-11-01T15:39:56.910Z,15.83
2022-11-01T15:43:01.733Z,15.84
2022-11-01T15:46:03.993Z,15.58
2022-11-01T15:49:09.501Z,15.67
2022-11-01T15:52:17.721Z,15.40
2022-11-01T15:55:27.632Z,15.43
2022-11-01T15:58:38.068Z,15.07
2022-11-01T16:01:40.078Z,14.98
2022-11-01T16:04:45.999Z,14.95
2022-11-01T16:07:48.716Z,14.82
2022-11-01T16:10:50.491Z,14.75
2022-11-01T16:14:01.550Z,14.31
2022-11-01T16:17:06.226Z,13.99
2022-11-01T16:20:27.399Z,14.08
2022-11-01T16:23:29.269Z,14.08
2022-11-01T16:26:30.985Z,14.09
2022-11-01T16:29:42.581Z,14.05
2022-11-01T16:32:44.409Z,14.17
2022-11-01T16:35:47.997Z,14.00
2022-11-01T16:38:53.165Z,13.83
2022-11-01T16:41:55.105Z,13.61
2022-11-01T16:44:58.495Z,13.32
2022-11-01T16:48:00.622Z,13.11
2022-11-01T16:51:03.797Z,12.93
2022-11-01T16:54:05.483Z,12.77
2022-11-01T16:57:18.354Z,12.52
2022-11-01T17:00:21.435Z,12.38
2022-11-01T17:03:24.372Z,12.46
2022-11-01T17:06:27.007Z,12.32
2022-11-01T17:09:32.597Z,12.26
2022-11-01T17:12:34.632Z,12.24
2022-11-01T17:15:41.609Z,12.11
2022-11-01T17:18:43.603Z,12.00
2022-11-01T17:21:46.656Z,11.91
2022-11-01T17:24:48.586Z,12.02
2022-11-01T17:27:51.731Z,12.02
2022-11-01T17:30:56.038Z,11.88
2022-11-01T17:33:57.723Z,12.14
2022-11-01T17:37:01.578Z,11.97
2022-11-01T17:40:04.007Z,12.15
2022-11-01T17:43:05.671Z,11.92
2022-11-01T17:46:13.771Z,12.18
2022-11-01T17:49:16.116Z,11.94
2022-11-01T17:52:17.839Z,11.95
2022-11-01T17:55:19.511Z,12.02
2022-11-01T17:58:21.103Z,11.77
2022-11-01T18:01:24.861Z,11.94
2022-11-01T18:04:26.622Z,11.92
2022-11-01T18:07:36.279Z,12.05
2022-11-01T18:10:43.254Z,11.98
2022-11-01T18:14:01.164Z,11.70
2022-11-01T18:17:29.862Z,11.41
2022-11-01T18:20:42.590Z,11.16
2022-11-01T18:23:47.383Z,11.72
2022-11-01T18:26:49.424Z,11.72
2022-11-01T18:29:54.148Z,11.68
2022-11-01T18:33:02.523Z,11.69
2022-11-01T18:36:08.946Z,11.71
2022-11-01T18:39:16.699Z,11.89
2022-11-01T18:42:18.345Z,12.09
2022-11-01T18:45:30.425Z,12.31
2022-11-01T18:48:38.983Z,12.08
2022-11-01T18:51:40.674Z,12.02
2022-11-01T18:54:48.451Z,12.03
2022-11-01T18:57:53.195Z,12.06
2022-11-01T19:01:01.396Z,12.31
2022-11-01T19:04:14.356Z,12.15
2022-11-01T19:07:19.904Z,12.31
2022-11-01T19:10:22.187Z,12.51
2022-11-01T19:13:28.688Z,12.27
2022-11-01T19:16:30.372Z,11.99
2022-11-01T19:19:37.344Z,12.03
2022-11-01T19:22:42.545Z,11.68
2022-11-01T19:25:45.270Z,11.81
2022-11-01T19:28:50.566Z,11.78
2022-11-01T19:31:56.424Z,11.68
2022-11-01T19:34:59.865Z,11.97
2022-11-01T19:38:01.933Z,12.23
2022-11-01T19:41:04.770Z,11.94
2022-11-01T19:44:13.815Z,12.03
2022-11-01T19:47:35.450Z,12.01
2022-11-01T19:50:41.395Z,11.96
2022-11-01T19:53:43.273Z,11.86
2022-11-01T19:56:45.103Z,12.06
2022-11-01T19:59:48.175Z,12.07
2022-11-01T20:02:52.996Z,11.87
2022-11-01T20:05:56.228Z,11.66
2022-11-01T20:09:02.861Z,11.58
2022-11-01T20:12:05.216Z,11.65
2022-11-01T20:15:08.375Z,11.74
2022-11-01T20:18:10.986Z,11.60
2022-11-01T20:21:14.082Z,11.59
2022-11-01T20:24:17.160Z,11.53
2022-11-01T20:27:19.457Z,11.73
2022-11-01T20:30:21.371Z,11.63
2022-11-01T20:33:23.150Z,11.66
2022-11-01T20:36:26.392Z,11.53
2022-11-01T20:39:28.025Z,11.60
2022-11-01T20:42:29.649Z,11.69
2022-11-01T20:45:31.323Z,11.62
2022-11-01T20:48:33.082Z,11.55
2022-11-01T20:51:36.030Z,11.73
2022-11-01T20:54:37.794Z,11.51
2022-11-01T20:57:39.442Z,11.48
2022-11-01T21:00:41.377Z,11.74
2022-11-01T21:03:43.363Z,11.82
2022-11-01T21:06:46.501Z,11.85
2022-11-01T21:09:51.646Z,11.83
2022-11-01T21:12:53.333Z,11.95
2022-11-01T21:15:56.719Z,11.96
2022-11-01T21:19:01.583Z,11.70
2022-11-01T21:22:10.660Z,11.69
2022-11-01T21:25:20.415Z,11.62
2022-11-01T21:28:28.418Z,11.68
2022-11-01T21:31:31.965Z,12.07
2022-11-01T21:34:35.626Z,12.05
2022-11-01T21:37:38.742Z,11.82
2022-11-01T21:40:42.069Z,11.72
2022-11-01T21:43:44.052Z,11.60
2022-11-01T21:46:48.195Z,11.58
2022-11-01T21:49:50.680Z,11.80
2022-11-01T21:52:53.665Z,11.69
2022-11-01T21:55:55.347Z,11.62
2022-11-01T21:58:56.989Z,11.47
2022-11-01T22:02:01.373Z,11.52
2022-11-01T22:05:04.297Z,11.59
2022-11-01T22:08:07.313Z,11.71
2022-11-01T22:11:09.026Z,11.71
2022-11-01T22:14:11.608Z,11.47
2022-11-01T22:17:13.385Z,11.75
2022-11-01T22:20:15.152Z,11.81
2022-11-01T22:23:18.109Z,11.84
2022-11-01T22:26:20.067Z,11.82
2022-11-01T22:29:21.722Z,11.89
2022-11-01T22:32:23.544Z,11.76
2022-11-01T22:35:25.205Z,11.76
2022-11-01T22:38:34.483Z,11.66
2022-11-01T22:41:36.739Z,11.71
2022-11-01T22:44:39.364Z,11.65
2022-11-01T22:47:44.743Z,11.67
2022-11-01T22:50:46.328Z,11.60
2022-11-01T22:53:50.921Z,11.47
2022-11-01T22:56:58.107Z,11.50
2022-11-01T23:00:01.712Z,11.48
2022-11-01T23:03:19.250Z,11.44
2022-11-01T23:06:34.282Z,11.37
2022-11-01T23:09:37.262Z,11.46
2022-11-01T23:12:57.857Z,11.55
2022-11-01T23:16:01.313Z,11.54
2022-11-01T23:19:08.044Z,11.75
2022-11-01T23:22:14.319Z,11.70
2022-11-01T23:25:17.307Z,11.61
2022-11-01T23:28:19.155Z,11.61
2022-11-01T23:31:23.447Z,11.68
2022-11-01T23:34:25.813Z,11.63
2022-11-01T23:37:27.473Z,11.65
2022-11-01T23:40:33.700Z,11.61
2022-11-01T23:43:38.756Z,11.68
2022-11-01T23:46:40.392Z,11.67
2022-11-01T23:49:42.814Z,11.76
2022-11-01T23:52:46.881Z,11.67
2022-11-01T23:55:53.540Z,11.66
2022-11-01T23:58:59.414Z,11.61
